Time;durP1;ratioP1;P1;durP2;ratioP2;P2;SDS_P1;SDS_P2;PMS_P1;PMS_P2;Temp;Humidity;BMP_temperature;BMP_pressure;BME280_temperature;BME280_humidity;BME280_pressure;Samples;Min_cycle;Max_cycle;Signal;HPM_P1;HPM_P2
2023/03/26 00:00:54;;;;;;;4.83;4.50;;;7.80;74.30;;;;;;6263109;28;20716;-83
2023/03/26 00:04:00;;;;;;;4.37;4.17;;;7.90;74.80;;;;;;6272300;28;20891;-83
2023/03/26 00:07:03;;;;;;;4.43;4.23;;;7.80;75.20;;;;;;6261811;28;20726;-80
2023/03/26 00:10:08;;;;;;;4.17;3.97;;;7.80;75.30;;;;;;6256910;28;20244;-83
2023/03/26 00:13:11;;;;;;;4.43;4.23;;;7.80;75.00;;;;;;6256174;28;20251;-83
2023/03/26 00:16:17;;;;;;;6.73;4.47;;;7.80;74.90;;;;;;6296958;28;20237;-83
2023/03/26 00:19:22;;;;;;;4.50;4.30;;;7.80;74.70;;;;;;6264167;28;20234;-82
2023/03/26 00:22:25;;;;;;;4.63;4.20;;;7.80;74.40;;;;;;6263496;28;20648;-82
2023/03/26 00:25:28;;;;;;;3.97;3.87;;;7.80;74.10;;;;;;6269530;28;20237;-83
2023/03/26 00:28:32;;;;;;;4.30;4.00;;;7.80;74.10;;;;;;6255353;28;20234;-81
2023/03/26 00:31:36;;;;;;;4.03;3.83;;;7.80;73.70;;;;;;6262573;28;20321;-83
2023/03/26 00:34:44;;;;;;;4.00;3.80;;;7.80;73.60;;;;;;6263770;28;20238;-82
2023/03/26 00:37:52;;;;;;;4.57;4.17;;;7.80;73.60;;;;;;6256479;28;20380;-82
2023/03/26 00:40:58;;;;;;;3.73;3.47;;;7.90;73.30;;;;;;6260036;28;20321;-81
2023/03/26 00:44:01;;;;;;;3.90;3.63;;;7.90;73.20;;;;;;6259360;28;20264;-83
2023/03/26 00:47:04;;;;;;;3.37;3.27;;;8.00;72.70;;;;;;6250999;28;20253;-81
2023/03/26 00:50:14;;;;;;;3.30;3.30;;;7.90;72.70;;;;;;6264664;28;20248;-83
2023/03/26 00:53:18;;;;;;;3.63;3.37;;;8.00;72.30;;;;;;6267625;28;20257;-80
2023/03/26 00:56:21;;;;;;;3.63;3.43;;;8.00;72.10;;;;;;6268271;28;20241;-83
2023/03/26 00:59:29;;;;;;;3.90;3.70;;;8.00;72.10;;;;;;6251024;28;20290;-84
2023/03/26 01:02:32;;;;;;;3.40;3.20;;;7.90;72.10;;;;;;6265249;28;20245;-84
2023/03/26 01:05:51;;;;;;;4.27;3.60;;;7.90;72.10;;;;;;6266101;28;20392;-81
2023/03/26 01:08:59;;;;;;;3.20;3.10;;;7.90;71.80;;;;;;6278440;28;20635;-82
2023/03/26 01:12:05;;;;;;;3.70;3.50;;;7.90;72.00;;;;;;6252418;28;20234;-82
2023/03/26 01:15:09;;;;;;;3.50;3.40;;;8.00;71.80;;;;;;6257627;28;20316;-82
2023/03/26 01:18:20;;;;;;;3.47;3.30;;;8.00;71.80;;;;;;6258687;28;20358;-82
2023/03/26 01:21:30;;;;;;;3.60;3.30;;;8.00;71.80;;;;;;6250028;28;20238;-80
2023/03/26 01:24:35;;;;;;;3.47;3.27;;;7.90;72.00;;;;;;6270989;28;20226;-84
2023/03/26 01:27:42;;;;;;;4.00;3.70;;;7.90;72.40;;;;;;6266821;28;20230;-81
2023/03/26 01:30:57;;;;;;;3.90;3.80;;;7.80;73.40;;;;;;6262198;28;20320;-82
2023/03/26 01:34:11;;;;;;;4.23;3.53;;;7.70;73.80;;;;;;6249934;28;20243;-83
2023/03/26 01:37:20;;;;;;;4.07;3.73;;;7.60;74.20;;;;;;6263081;28;20242;-83
2023/03/26 01:40:28;;;;;;;3.77;3.47;;;7.60;74.40;;;;;;6264923;28;20227;-83
2023/03/26 01:43:37;;;;;;;3.50;3.27;;;7.50;74.30;;;;;;6267037;28;20230;-82
2023/03/26 01:46:41;;;;;;;3.20;3.10;;;7.50;74.50;;;;;;6276253;28;20234;-82
2023/03/26 01:49:45;;;;;;;3.10;3.00;;;7.50;74.70;;;;;;6265054;28;20261;-80
2023/03/26 01:52:48;;;;;;;3.37;3.07;;;7.50;74.50;;;;;;6266860;28;20740;-82
2023/03/26 01:56:02;;;;;;;3.40;3.20;;;7.50;74.50;;;;;;6253010;28;20821;-83
2023/03/26 01:59:16;;;;;;;2.63;2.63;;;7.40;74.60;;;;;;6251130;28;20234;-81
2023/03/26 02:02:26;;;;;;;2.90;2.80;;;7.40;74.30;;;;;;6246403;28;20250;-83
2023/03/26 02:05:34;;;;;;;2.93;2.73;;;7.40;74.30;;;;;;6245662;28;20694;-81
2023/03/26 02:08:42;;;;;;;3.10;2.80;;;7.30;74.60;;;;;;6267736;28;20355;-83
2023/03/26 02:11:48;;;;;;;2.83;2.73;;;7.40;74.50;;;;;;6265516;28;20279;-83
2023/03/26 02:14:52;;;;;;;3.00;2.90;;;7.30;74.90;;;;;;6261937;28;20280;-83
2023/03/26 02:17:58;;;;;;;2.90;2.90;;;7.20;75.50;;;;;;6259035;28;20313;-82
2023/03/26 02:21:04;;;;;;;3.10;3.10;;;7.20;75.60;;;;;;6267414;28;20248;-82
2023/03/26 02:24:08;;;;;;;3.40;3.20;;;7.20;75.80;;;;;;6263088;28;20325;-84
2023/03/26 02:27:17;;;;;;;3.53;3.33;;;7.20;75.90;;;;;;6279610;28;20891;-82
2023/03/26 02:30:25;;;;;;;3.30;3.20;;;7.20;75.90;;;;;;6281791;28;20320;-82
2023/03/26 02:33:28;;;;;;;3.93;3.83;;;7.20;76.00;;;;;;6267825;28;20847;-83
2023/03/26 02:36:31;;;;;;;3.30;3.10;;;7.10;76.00;;;;;;6272947;28;20237;-82
2023/03/26 02:39:35;;;;;;;3.50;3.30;;;7.00;76.10;;;;;;6273365;28;20230;-84
2023/03/26 02:42:40;;;;;;;3.57;3.47;;;7.00;76.10;;;;;;6258971;28;20644;-83
2023/03/26 02:45:43;;;;;;;3.87;3.70;;;7.00;76.20;;;;;;6256716;28;20746;-84
2023/03/26 02:48:46;;;;;;;3.77;3.60;;;7.00;76.00;;;;;;6259285;28;20234;-83
2023/03/26 02:51:49;;;;;;;3.47;3.30;;;7.00;76.10;;;;;;6244432;28;20234;-82
2023/03/26 02:54:53;;;;;;;3.70;3.50;;;7.00;76.10;;;;;;6274090;28;20226;-83
2023/03/26 02:57:57;;;;;;;3.90;3.60;;;7.00;75.90;;;;;;6257660;28;20252;-83
2023/03/26 03:01:01;;;;;;;3.53;3.30;;;7.00;76.00;;;;;;6265375;28;20246;-82
2023/03/26 03:04:07;;;;;;;3.67;3.43;;;7.00;76.00;;;;;;6256031;28;20233;-81
2023/03/26 03:07:13;;;;;;;3.50;3.30;;;7.00;76.00;;;;;;6264123;28;20238;-83
2023/03/26 03:10:20;;;;;;;4.07;3.77;;;7.10;75.70;;;;;;6258262;28;20248;-82
2023/03/26 03:13:27;;;;;;;3.77;3.67;;;7.20;75.50;;;;;;6269051;28;20234;-82
2023/03/26 03:16:30;;;;;;;4.10;3.90;;;7.20;75.30;;;;;;6266067;28;20234;-82
2023/03/26 03:19:34;;;;;;;3.60;3.40;;;7.20;75.50;;;;;;6274309;28;20244;-84
2023/03/26 03:22:38;;;;;;;3.50;3.50;;;7.20;75.70;;;;;;6254165;28;20325;-82
2023/03/26 03:25:41;;;;;;;3.73;3.63;;;7.20;75.50;;;;;;6270598;28;20236;-84
2023/03/26 03:28:45;;;;;;;3.87;3.60;;;7.20;75.50;;;;;;6261812;28;20229;-82
2023/03/26 03:31:48;;;;;;;6.10;4.10;;;7.20;75.80;;;;;;6269226;28;20658;-80
2023/03/26 03:34:51;;;;;;;3.80;3.70;;;7.20;75.50;;;;;;6275510;28;20257;-78
2023/03/26 03:37:54;;;;;;;4.37;4.17;;;7.30;75.50;;;;;;6276591;28;20215;-78
2023/03/26 03:40:58;;;;;;;4.33;4.20;;;7.30;75.70;;;;;;6282484;28;20286;-78
2023/03/26 03:44:03;;;;;;;4.50;4.17;;;7.40;75.50;;;;;;6282653;28;20290;-78
2023/03/26 03:47:06;;;;;;;4.57;4.17;;;7.40;75.60;;;;;;6289263;28;20257;-78
2023/03/26 03:50:11;;;;;;;4.33;4.03;;;7.40;75.50;;;;;;6300771;28;20278;-78
2023/03/26 03:53:14;;;;;;;5.47;4.53;;;7.50;75.60;;;;;;6284023;28;20997;-81
2023/03/26 03:56:22;;;;;;;5.47;4.23;;;7.40;75.50;;;;;;6263779;28;20240;-79
2023/03/26 03:59:27;;;;;;;4.43;4.10;;;7.40;75.40;;;;;;6265283;28;20388;-79
2023/03/26 04:02:33;;;;;;;4.10;3.90;;;7.40;75.10;;;;;;6250506;28;20235;-81
2023/03/26 04:05:39;;;;;;;4.63;4.23;;;7.40;75.00;;;;;;6250986;28;20277;-81
2023/03/26 04:08:43;;;;;;;4.17;4.00;;;7.40;75.10;;;;;;6257781;28;20239;-81
2023/03/26 04:11:46;;;;;;;6.00;4.10;;;7.40;75.00;;;;;;6265685;28;20257;-79
2023/03/26 04:14:50;;;;;;;4.40;4.13;;;7.40;74.70;;;;;;6266857;28;21210;-80
2023/03/26 04:17:53;;;;;;;5.47;4.53;;;7.40;74.40;;;;;;6262539;28;20320;-79
2023/03/26 04:21:01;;;;;;;4.17;3.80;;;7.40;74.40;;;;;;6267181;28;20230;-80
2023/03/26 04:24:06;;;;;;;4.17;4.00;;;7.40;74.40;;;;;;6294012;28;20240;-79
2023/03/26 04:27:14;;;;;;;4.27;4.07;;;7.40;74.50;;;;;;6289032;28;20234;-80
2023/03/26 04:30:20;;;;;;;3.70;3.60;;;7.50;74.50;;;;;;6294731;28;20303;-76
2023/03/26 04:33:23;;;;;;;4.17;3.87;;;7.40;74.80;;;;;;6279660;28;20238;-76
2023/03/26 04:36:30;;;;;;;3.97;3.77;;;7.40;74.80;;;;;;6301295;28;20239;-80
2023/03/26 04:39:37;;;;;;;4.27;3.87;;;7.40;74.80;;;;;;6259331;28;20226;-81
2023/03/26 04:42:45;;;;;;;4.10;3.80;;;7.40;74.90;;;;;;6234481;28;20248;-80
2023/03/26 04:45:51;;;;;;;4.60;4.30;;;7.40;74.90;;;;;;6247919;28;20874;-82
2023/03/26 04:48:54;;;;;;;3.80;3.50;;;7.30;75.00;;;;;;6276211;28;20236;-82
2023/03/26 04:51:58;;;;;;;3.90;3.80;;;7.20;75.10;;;;;;6280296;28;20237;-80
2023/03/26 04:55:01;;;;;;;3.47;3.37;;;7.20;75.20;;;;;;6280394;28;20254;-83
2023/03/26 04:58:04;;;;;;;4.07;3.70;;;7.20;75.20;;;;;;6275090;28;20237;-81
2023/03/26 05:01:10;;;;;;;3.90;3.60;;;7.10;75.20;;;;;;6286277;28;20290;-81
2023/03/26 05:04:13;;;;;;;4.03;3.47;;;7.20;74.80;;;;;;6274716;28;20721;-80
2023/03/26 05:07:21;;;;;;;3.50;3.30;;;7.10;74.70;;;;;;6272302;28;20240;-82
2023/03/26 05:10:24;;;;;;;3.07;3.07;;;7.20;74.60;;;;;;6254788;28;20328;-82
2023/03/26 05:13:27;;;;;;;3.47;3.40;;;7.20;74.60;;;;;;6261552;28;20291;-81
2023/03/26 05:16:38;;;;;;;3.47;3.30;;;7.10;74.90;;;;;;6262999;28;20272;-80
2023/03/26 05:19:43;;;;;;;3.33;3.27;;;7.20;74.80;;;;;;6276158;28;20237;-81
2023/03/26 05:22:47;;;;;;;3.57;3.47;;;7.20;74.90;;;;;;6266561;28;20292;-82
2023/03/26 05:25:50;;;;;;;3.87;3.60;;;7.20;74.90;;;;;;6239620;28;20366;-81
2023/03/26 05:28:56;;;;;;;4.17;3.83;;;7.20;74.90;;;;;;6285171;28;20237;-81
2023/03/26 05:32:00;;;;;;;4.10;3.90;;;7.10;75.30;;;;;;6276287;28;20896;-82
2023/03/26 05:35:03;;;;;;;3.83;3.70;;;7.20;75.50;;;;;;6277738;28;20241;-78
2023/03/26 05:38:07;;;;;;;7.17;4.23;;;7.20;75.30;;;;;;6283873;28;20233;-79
2023/03/26 05:41:10;;;;;;;4.07;3.87;;;7.20;75.00;;;;;;6279437;28;20229;-79
2023/03/26 05:44:14;;;;;;;4.30;4.00;;;7.30;74.90;;;;;;6282559;28;20237;-81
2023/03/26 05:47:18;;;;;;;4.23;4.03;;;7.30;74.90;;;;;;6277670;28;20241;-80
2023/03/26 05:50:22;;;;;;;4.37;4.17;;;7.40;74.60;;;;;;6282662;28;20234;-81
2023/03/26 05:53:26;;;;;;;4.73;3.63;;;7.40;74.30;;;;;;6237127;28;20290;-79
2023/03/26 05:56:29;;;;;;;3.77;3.40;;;7.40;74.20;;;;;;6246610;28;20249;-81
2023/03/26 05:59:35;;;;;;;3.47;3.17;;;7.40;74.10;;;;;;6270761;28;20371;-78
2023/03/26 06:02:41;;;;;;;4.30;3.93;;;7.40;74.10;;;;;;6275012;28;20245;-81
2023/03/26 06:05:45;;;;;;;4.50;4.30;;;7.40;74.10;;;;;;6259083;28;20233;-80
2023/03/26 06:08:50;;;;;;;3.67;3.40;;;7.40;73.90;;;;;;6284484;28;20713;-78
2023/03/26 06:12:06;;;;;;;4.37;4.07;;;7.50;73.80;;;;;;6277694;28;20235;-80
2023/03/26 06:15:10;;;;;;;4.57;3.40;;;7.50;73.80;;;;;;6275822;28;20238;-80
2023/03/26 06:18:15;;;;;;;3.30;3.20;;;7.50;73.90;;;;;;6284990;28;20267;-79
2023/03/26 06:21:21;;;;;;;3.70;3.60;;;7.50;73.70;;;;;;6281510;28;20673;-79
2023/03/26 06:24:24;;;;;;;4.33;3.53;;;7.50;73.50;;;;;;6248971;28;20268;-79
2023/03/26 06:27:27;;;;;;;3.47;3.37;;;7.50;73.30;;;;;;6258961;28;20274;-79
2023/03/26 06:30:30;;;;;;;3.60;3.47;;;7.50;73.00;;;;;;6270087;28;20610;-80
2023/03/26 06:33:35;;;;;;;3.73;3.43;;;7.50;73.00;;;;;;6261312;28;20238;-80
2023/03/26 06:36:38;;;;;;;4.90;3.57;;;7.60;72.80;;;;;;6262449;28;20614;-81
2023/03/26 06:39:41;;;;;;;4.23;3.83;;;7.60;72.50;;;;;;6258578;28;20226;-80
2023/03/26 06:42:44;;;;;;;5.73;4.00;;;7.50;72.60;;;;;;6271350;28;20226;-82
2023/03/26 06:46:07;;;;;;;4.77;3.83;;;7.50;72.40;;;;;;6282127;28;20233;-78
2023/03/26 06:49:12;;;;;;;3.90;3.63;;;7.50;72.90;;;;;;6275220;28;20835;-80
2023/03/26 06:52:15;;;;;;;3.80;3.50;;;7.50;72.90;;;;;;6286767;28;20240;-79
2023/03/26 06:55:18;;;;;;;3.33;3.23;;;7.40;73.40;;;;;;6277460;28;20230;-82
2023/03/26 06:58:21;;;;;;;3.90;3.40;;;7.40;73.50;;;;;;6278403;28;20229;-79
2023/03/26 07:01:25;;;;;;;4.17;3.83;;;7.50;73.50;;;;;;6276435;28;20256;-82
2023/03/26 07:04:29;;;;;;;4.63;3.63;;;7.40;73.80;;;;;;6276675;28;20700;-79
2023/03/26 07:07:33;;;;;;;5.77;3.57;;;7.50;72.20;;;;;;6280995;28;20310;-80
2023/03/26 07:10:36;;;;;;;3.60;3.30;;;7.70;72.00;;;;;;6284887;28;20234;-80
2023/03/26 07:13:39;;;;;;;3.77;3.60;;;7.80;71.20;;;;;;6286737;28;20734;-79
2023/03/26 07:16:42;;;;;;;3.10;3.00;;;8.00;71.10;;;;;;6281585;28;20240;-79
2023/03/26 07:19:47;;;;;;;4.23;3.87;;;8.10;71.80;;;;;;6286340;28;20233;-79
2023/03/26 07:22:51;;;;;;;4.30;3.60;;;8.20;69.80;;;;;;6281453;28;20418;-78
2023/03/26 07:25:55;;;;;;;3.60;3.43;;;8.20;69.50;;;;;;6283434;28;20472;-82
2023/03/26 07:29:04;;;;;;;3.07;2.90;;;8.10;69.70;;;;;;6268652;28;20225;-79
2023/03/26 07:32:16;;;;;;;3.20;3.10;;;8.20;70.00;;;;;;6280270;28;20245;-80
2023/03/26 07:35:28;;;;;;;3.40;3.30;;;8.20;69.70;;;;;;6262698;28;21683;-80
2023/03/26 07:38:44;;;;;;;3.27;3.03;;;8.30;69.70;;;;;;6281347;28;20229;-81
2023/03/26 07:41:50;;;;;;;3.20;2.90;;;8.30;68.60;;;;;;6285487;28;20237;-80
2023/03/26 07:45:08;;;;;;;3.20;3.00;;;8.40;68.90;;;;;;6280703;28;20241;-79
2023/03/26 07:48:17;;;;;;;6.07;3.40;;;8.50;69.10;;;;;;6284989;28;20249;-79
2023/03/26 07:51:24;;;;;;;3.13;2.80;;;8.50;68.50;;;;;;6287304;28;20237;-79
2023/03/26 07:54:28;;;;;;;5.17;3.10;;;8.40;68.20;;;;;;6278360;28;20230;-78
2023/03/26 07:57:43;;;;;;;3.40;3.10;;;8.40;67.40;;;;;;6276679;28;20279;-78
2023/03/26 08:00:52;;;;;;;3.53;3.17;;;8.40;67.70;;;;;;6274136;28;20238;-80
2023/03/26 08:04:12;;;;;;;3.47;3.13;;;8.40;67.80;;;;;;6268458;28;20242;-79
2023/03/26 08:07:41;;;;;;;3.80;3.00;;;8.40;67.80;;;;;;6251508;28;20235;-78
2023/03/26 08:11:01;;;;;;;3.33;3.03;;;8.40;68.30;;;;;;6258654;28;20229;-80
2023/03/26 08:14:20;;;;;;;3.73;3.30;;;8.40;68.20;;;;;;6256273;28;20253;-81
2023/03/26 08:17:30;;;;;;;3.97;3.63;;;8.40;68.30;;;;;;6255205;28;20234;-79
2023/03/26 08:20:42;;;;;;;3.80;3.37;;;8.40;68.20;;;;;;6261462;28;20234;-80
2023/03/26 08:24:00;;;;;;;3.30;3.20;;;8.50;68.20;;;;;;6258230;28;20416;-80
2023/03/26 08:27:12;;;;;;;3.30;3.10;;;8.50;68.40;;;;;;6278648;28;20272;-79
2023/03/26 08:30:20;;;;;;;4.27;3.20;;;8.50;67.80;;;;;;6286372;28;20233;-80
2023/03/26 08:33:27;;;;;;;3.80;3.50;;;8.50;67.60;;;;;;6260444;28;20234;-80
2023/03/26 08:36:30;;;;;;;3.87;3.57;;;8.50;67.10;;;;;;6251995;28;20235;-82
2023/03/26 08:39:35;;;;;;;6.30;3.90;;;8.40;67.90;;;;;;6250151;28;20233;-81
2023/03/26 08:43:09;;;;;;;3.90;3.50;;;8.30;67.60;;;;;;6262405;28;20229;-82
2023/03/26 08:46:34;;;;;;;3.80;3.50;;;8.30;67.90;;;;;;6251814;28;20230;-80
2023/03/26 08:49:57;;;;;;;4.23;3.80;;;8.30;68.60;;;;;;6260393;28;20863;-81
2023/03/26 08:53:35;;;;;;;4.10;3.50;;;8.30;68.10;;;;;;6263778;28;20226;-81
2023/03/26 08:57:00;;;;;;;4.03;3.73;;;8.40;68.10;;;;;;6248482;28;20250;-81
2023/03/26 09:00:29;;;;;;;5.00;3.63;;;8.30;68.80;;;;;;6258931;28;20235;-78
2023/03/26 09:03:46;;;;;;;5.80;4.13;;;8.20;69.00;;;;;;6250881;28;20233;-79
2023/03/26 09:07:36;;;;;;;4.07;3.87;;;8.30;68.70;;;;;;6254603;28;20724;-80
2023/03/26 09:10:51;;;;;;;4.30;3.90;;;8.30;68.70;;;;;;6265374;28;20284;-80
2023/03/26 09:14:17;;;;;;;3.47;3.20;;;8.50;68.30;;;;;;6267792;28;20238;-80
2023/03/26 09:17:50;;;;;;;4.20;3.80;;;8.50;67.90;;;;;;6254695;28;20250;-80
2023/03/26 09:21:27;;;;;;;4.17;3.77;;;8.60;67.70;;;;;;6248453;28;20242;-77
2023/03/26 09:24:52;;;;;;;4.13;3.83;;;8.60;67.60;;;;;;6231170;28;20242;-81
2023/03/26 09:28:34;;;;;;;3.70;3.60;;;8.40;67.90;;;;;;6245522;28;20252;-78
2023/03/26 09:32:04;;;;;;;6.87;3.83;;;8.50;67.80;;;;;;6258189;28;20243;-79
2023/03/26 09:35:14;;;;;;;3.90;3.60;;;8.60;68.00;;;;;;6252439;28;20234;-78
2023/03/26 09:38:40;;;;;;;3.90;3.70;;;8.60;67.30;;;;;;6250640;28;20234;-79
2023/03/26 09:41:48;;;;;;;3.60;3.40;;;8.60;66.90;;;;;;6255718;28;20244;-81
2023/03/26 09:45:16;;;;;;;5.77;3.33;;;8.70;67.50;;;;;;6257009;28;20238;-81
2023/03/26 09:49:01;;;;;;;3.80;3.20;;;8.60;68.40;;;;;;6247464;28;20327;-79
2023/03/26 09:52:26;;;;;;;3.63;3.43;;;8.40;69.80;;;;;;6235746;28;20226;-82
2023/03/26 09:55:42;;;;;;;4.00;3.70;;;8.20;71.00;;;;;;6275702;28;20807;-78
2023/03/26 09:59:05;;;;;;;3.70;3.40;;;8.20;71.70;;;;;;6268258;28;20241;-80
2023/03/26 10:02:25;;;;;;;4.10;3.80;;;8.00;71.50;;;;;;6261731;28;20237;-78
2023/03/26 10:06:08;;;;;;;4.57;4.03;;;8.10;71.80;;;;;;6257019;28;20710;-77
2023/03/26 10:09:29;;;;;;;3.57;3.37;;;8.10;71.80;;;;;;6254199;28;20230;-79
2023/03/26 10:12:37;;;;;;;4.67;4.07;;;8.10;71.50;;;;;;6248292;28;20241;-78
2023/03/26 10:15:55;;;;;;;5.23;3.40;;;8.20;72.00;;;;;;6262505;28;20229;-81
2023/03/26 10:19:10;;;;;;;4.17;3.87;;;8.40;71.80;;;;;;6258473;28;20257;-76
2023/03/26 10:22:30;;;;;;;3.93;3.67;;;8.40;71.10;;;;;;6247392;28;20238;-75
2023/03/26 10:25:47;;;;;;;4.43;4.13;;;8.50;70.80;;;;;;6250965;28;20222;-77
2023/03/26 10:29:16;;;;;;;4.97;3.63;;;8.60;69.80;;;;;;6254316;28;20234;-78
2023/03/26 10:32:29;;;;;;;5.93;3.80;;;8.70;69.70;;;;;;6253474;28;20268;-80
2023/03/26 10:35:45;;;;;;;4.80;4.43;;;8.60;69.50;;;;;;6257071;28;20226;-77
2023/03/26 10:39:16;;;;;;;4.50;4.20;;;8.70;69.80;;;;;;6257922;28;20737;-78
2023/03/26 10:43:01;;;;;;;4.93;3.80;;;8.60;69.90;;;;;;6278928;28;20251;-76
2023/03/26 10:46:31;;;;;;;8.30;4.77;;;8.80;69.90;;;;;;6278144;28;20257;-77
2023/03/26 10:49:54;;;;;;;5.47;4.13;;;8.90;69.70;;;;;;6280444;28;20719;-78
2023/03/26 10:53:04;;;;;;;5.27;4.40;;;8.90;69.60;;;;;;6275694;28;20753;-77
2023/03/26 10:56:14;;;;;;;4.57;4.23;;;9.00;69.90;;;;;;6284353;28;20229;-77
2023/03/26 10:59:19;;;;;;;7.00;4.30;;;9.10;69.50;;;;;;6278203;28;20236;-77
2023/03/26 11:02:31;;;;;;;5.00;4.60;;;9.30;69.70;;;;;;6285540;28;20241;-78
2023/03/26 11:05:47;;;;;;;5.67;5.13;;;9.40;69.60;;;;;;6268929;28;20316;-77
2023/03/26 11:08:58;;;;;;;5.30;4.73;;;9.60;69.00;;;;;;6265191;28;20324;-77
2023/03/26 11:12:10;;;;;;;7.20;5.20;;;9.70;68.30;;;;;;6272695;28;20256;-78
2023/03/26 11:15:36;;;;;;;5.00;4.50;;;9.80;68.40;;;;;;6269780;28;20234;-74
2023/03/26 11:18:48;;;;;;;7.70;4.40;;;9.90;67.70;;;;;;6292527;28;20214;-75
2023/03/26 11:21:56;;;;;;;4.77;4.33;;;9.80;67.30;;;;;;6294395;28;20368;-75
2023/03/26 11:25:15;;;;;;;4.50;4.20;;;9.70;68.00;;;;;;6287509;28;20226;-76
2023/03/26 11:28:51;;;;;;;5.03;4.57;;;10.00;68.00;;;;;;6277948;28;20230;-75
2023/03/26 11:32:12;;;;;;;5.27;4.23;;;10.20;67.20;;;;;;6263970;28;20222;-77
2023/03/26 11:35:20;;;;;;;5.57;4.50;;;10.30;66.90;;;;;;6286504;28;20282;-77
2023/03/26 11:38:44;;;;;;;4.40;4.10;;;10.50;66.40;;;;;;6313621;28;20307;-77
2023/03/26 11:41:49;;;;;;;4.30;3.90;;;10.60;65.40;;;;;;6286862;28;20234;-76
2023/03/26 11:44:55;;;;;;;4.43;4.03;;;10.70;65.80;;;;;;6286761;28;20218;-76
2023/03/26 11:48:08;;;;;;;8.10;4.60;;;10.80;66.10;;;;;;6277896;28;20238;-74
2023/03/26 11:51:18;;;;;;;4.30;4.00;;;10.90;65.30;;;;;;6272909;28;20490;-76
2023/03/26 11:54:21;;;;;;;4.37;3.97;;;10.80;63.90;;;;;;6254407;28;20235;-78
2023/03/26 11:57:28;;;;;;;6.37;4.37;;;10.80;64.70;;;;;;6274420;28;20275;-76
2023/03/26 12:00:32;;;;;;;4.20;3.83;;;10.90;64.80;;;;;;6286986;28;20230;-79
2023/03/26 12:03:37;;;;;;;5.73;4.73;;;10.90;64.50;;;;;;6277801;28;20230;-75
2023/03/26 12:06:52;;;;;;;4.13;3.93;;;11.10;64.90;;;;;;6283051;28;20348;-76
2023/03/26 12:09:59;;;;;;;4.17;3.70;;;11.10;64.30;;;;;;6291198;28;20218;-75
2023/03/26 12:13:37;;;;;;;4.27;3.90;;;11.10;64.00;;;;;;6283742;28;20214;-76
2023/03/26 12:16:57;;;;;;;4.93;4.47;;;11.20;63.70;;;;;;6286753;28;20223;-75
2023/03/26 12:20:21;;;;;;;4.40;4.10;;;11.10;64.00;;;;;;6295188;28;20241;-76
2023/03/26 12:23:37;;;;;;;3.90;3.57;;;11.10;64.10;;;;;;6273672;28;20257;-76
2023/03/26 12:26:43;;;;;;;5.03;3.50;;;11.10;63.30;;;;;;6269902;28;20292;-78
2023/03/26 12:29:51;;;;;;;4.70;3.90;;;11.30;63.20;;;;;;6255868;28;20291;-78
2023/03/26 12:32:58;;;;;;;4.13;3.80;;;11.20;62.80;;;;;;6262557;28;20334;-79
2023/03/26 12:36:22;;;;;;;4.37;4.13;;;11.30;62.70;;;;;;6262057;28;20599;-77
2023/03/26 12:39:31;;;;;;;3.77;3.50;;;11.30;62.90;;;;;;6284249;28;20328;-75
2023/03/26 12:42:56;;;;;;;4.00;3.50;;;11.30;61.60;;;;;;6239950;28;20709;-77
2023/03/26 12:46:28;;;;;;;4.23;3.83;;;11.50;61.40;;;;;;6254227;28;20744;-76
2023/03/26 12:49:52;;;;;;;4.93;4.40;;;11.50;60.90;;;;;;6273610;28;20237;-76
2023/03/26 12:53:13;;;;;;;6.70;6.13;;;11.00;62.20;;;;;;6274095;28;20655;-76
2023/03/26 12:56:21;;;;;;;3.77;3.50;;;11.10;62.50;;;;;;6272707;28;20711;-77
2023/03/26 12:59:41;;;;;;;4.13;3.80;;;11.10;61.00;;;;;;6288061;28;20229;-76
2023/03/26 13:03:13;;;;;;;4.20;3.80;;;10.90;61.70;;;;;;6273054;28;20238;-78
2023/03/26 13:06:26;;;;;;;3.50;3.30;;;11.00;62.00;;;;;;6251269;28;20847;-77
2023/03/26 13:10:14;;;;;;;6.80;3.70;;;11.10;61.70;;;;;;6251860;28;20326;-79
2023/03/26 13:13:55;;;;;;;4.00;3.70;;;11.20;60.60;;;;;;6234990;28;20249;-75
2023/03/26 13:17:04;;;;;;;3.23;3.03;;;11.10;61.10;;;;;;6252208;28;20772;-79
2023/03/26 13:20:14;;;;;;;3.00;2.77;;;11.00;59.80;;;;;;6251182;28;20244;-76
2023/03/26 13:23:35;;;;;;;3.93;3.13;;;11.00;60.20;;;;;;6252287;28;20234;-78
2023/03/26 13:26:56;;;;;;;4.00;3.10;;;11.00;59.40;;;;;;6253908;28;20297;-76
2023/03/26 13:30:05;;;;;;;2.80;2.70;;;10.90;60.50;;;;;;6248979;28;20249;-77
2023/03/26 13:33:25;;;;;;;2.90;2.80;;;11.10;60.20;;;;;;6276085;28;20253;-73
2023/03/26 13:36:40;;;;;;;3.50;3.40;;;11.40;59.30;;;;;;6282922;28;20288;-74
2023/03/26 13:39:55;;;;;;;2.77;2.57;;;11.50;57.90;;;;;;6283926;28;20219;-74
2023/03/26 13:43:24;;;;;;;2.93;2.70;;;11.60;58.00;;;;;;6289543;28;20248;-75
2023/03/26 13:46:33;;;;;;;2.90;2.70;;;11.50;57.70;;;;;;6289402;28;20256;-77
2023/03/26 13:49:41;;;;;;;4.73;2.90;;;11.50;58.40;;;;;;6283212;28;20222;-75
2023/03/26 13:52:49;;;;;;;3.10;2.90;;;11.40;58.00;;;;;;6257483;28;20436;-77
2023/03/26 13:55:55;;;;;;;3.33;3.13;;;11.20;58.30;;;;;;6265733;28;20238;-74
2023/03/26 13:59:06;;;;;;;2.83;2.80;;;11.10;58.40;;;;;;6263547;28;20243;-79
2023/03/26 14:02:14;;;;;;;2.70;2.60;;;11.10;58.90;;;;;;6267679;28;20246;-76
2023/03/26 14:05:24;;;;;;;2.70;2.60;;;11.30;58.90;;;;;;6278671;28;20244;-79
2023/03/26 14:08:33;;;;;;;2.73;2.67;;;11.40;58.60;;;;;;6273555;28;20591;-78
2023/03/26 14:11:51;;;;;;;3.03;2.93;;;11.60;58.50;;;;;;6277987;28;20244;-77
2023/03/26 14:15:00;;;;;;;3.20;3.00;;;11.90;58.30;;;;;;6274978;28;20477;-76
2023/03/26 14:18:22;;;;;;;3.00;2.80;;;12.00;57.50;;;;;;6276089;28;20234;-76
2023/03/26 14:21:56;;;;;;;3.00;2.77;;;11.90;57.20;;;;;;6272721;28;20239;-75
2023/03/26 14:25:24;;;;;;;3.00;3.00;;;11.90;56.80;;;;;;6297328;28;20238;-76
2023/03/26 14:28:52;;;;;;;2.73;2.63;;;11.90;56.70;;;;;;6269670;28;20229;-76
2023/03/26 14:32:07;;;;;;;2.97;2.70;;;12.10;56.70;;;;;;6279109;28;20753;-76
2023/03/26 14:35:32;;;;;;;3.60;2.40;;;12.40;56.30;;;;;;6272911;28;20248;-77
2023/03/26 14:39:05;;;;;;;3.03;2.83;;;12.50;56.70;;;;;;6250070;28;20243;-79
2023/03/26 14:42:17;;;;;;;3.00;2.80;;;12.50;56.20;;;;;;6252673;28;20392;-78
2023/03/26 14:46:12;;;;;;;6.00;3.07;;;12.20;56.50;;;;;;6259147;28;20229;-75
2023/03/26 14:49:31;;;;;;;2.97;2.87;;;11.90;57.50;;;;;;6214835;28;20730;-76
2023/03/26 14:52:46;;;;;;;2.93;2.73;;;11.70;57.10;;;;;;6250030;28;20241;-75
2023/03/26 14:56:14;;;;;;;3.03;2.83;;;11.90;57.30;;;;;;6256384;28;20325;-77
2023/03/26 14:59:46;;;;;;;3.13;2.93;;;11.90;56.80;;;;;;6245497;28;20226;-76
2023/03/26 15:03:37;;;;;;;3.20;2.90;;;11.90;56.60;;;;;;6248313;28;20253;-77
2023/03/26 15:07:17;;;;;;;3.17;3.00;;;11.90;56.90;;;;;;6239580;28;20230;-74
2023/03/26 15:10:48;;;;;;;3.07;2.87;;;11.80;57.20;;;;;;6281958;28;20238;-75
2023/03/26 15:14:03;;;;;;;2.80;2.70;;;11.90;56.70;;;;;;6250184;28;20241;-75
2023/03/26 15:17:39;;;;;;;4.70;3.00;;;11.90;56.80;;;;;;6233460;28;20240;-77
2023/03/26 15:21:35;;;;;;;2.67;2.57;;;11.90;56.70;;;;;;6254414;28;20242;-79
2023/03/26 15:25:19;;;;;;;3.27;3.00;;;11.70;56.50;;;;;;6256210;28;20230;-76
2023/03/26 15:28:55;;;;;;;4.43;2.90;;;11.50;56.40;;;;;;6279773;28;20557;-80
2023/03/26 15:32:28;;;;;;;3.00;2.90;;;11.50;56.60;;;;;;6256802;28;20238;-81
2023/03/26 15:36:09;;;;;;;3.33;3.10;;;11.50;56.70;;;;;;6265169;28;20233;-82
2023/03/26 15:39:36;;;;;;;3.33;3.03;;;11.30;57.00;;;;;;6228420;28;20231;-79
2023/03/26 15:42:53;;;;;;;2.93;2.87;;;11.30;57.80;;;;;;6271912;28;20303;-76
2023/03/26 15:46:25;;;;;;;3.20;2.97;;;11.30;58.00;;;;;;6279267;28;20466;-80
2023/03/26 15:49:40;;;;;;;3.60;3.30;;;11.10;58.40;;;;;;6261241;28;20229;-82
2023/03/26 15:52:49;;;;;;;6.50;3.40;;;11.00;58.60;;;;;;6261736;28;20615;-79
2023/03/26 15:56:00;;;;;;;3.13;3.03;;;10.90;58.70;;;;;;6261481;28;20260;-80
2023/03/26 15:59:15;;;;;;;3.80;3.40;;;10.80;58.50;;;;;;6258896;28;20454;-80
2023/03/26 16:02:36;;;;;;;4.37;3.00;;;10.70;58.90;;;;;;6266014;28;20680;-80
2023/03/26 16:05:53;;;;;;;3.17;3.00;;;10.60;59.20;;;;;;6275154;28;20320;-80
2023/03/26 16:09:09;;;;;;;3.43;3.13;;;10.50;59.00;;;;;;6250910;28;20256;-81
2023/03/26 16:12:31;;;;;;;3.13;2.90;;;10.60;59.10;;;;;;6277812;28;20757;-80
2023/03/26 16:15:35;;;;;;;3.07;2.90;;;10.50;59.00;;;;;;6269298;28;20227;-80
2023/03/26 16:18:41;;;;;;;3.30;3.10;;;10.40;59.00;;;;;;6259081;28;20225;-81
2023/03/26 16:21:54;;;;;;;4.87;3.10;;;10.50;58.70;;;;;;6267223;28;20242;-82
2023/03/26 16:25:22;;;;;;;3.40;3.03;;;10.40;58.60;;;;;;6262438;28;20604;-81
2023/03/26 16:28:33;;;;;;;3.00;2.73;;;10.30;58.30;;;;;;6260459;28;20385;-81
2023/03/26 16:31:36;;;;;;;3.33;3.13;;;10.30;59.10;;;;;;6281784;28;20312;-81
2023/03/26 16:34:52;;;;;;;4.00;3.00;;;10.30;58.50;;;;;;6277377;28;20239;-80
2023/03/26 16:38:06;;;;;;;3.07;2.77;;;10.20;58.60;;;;;;6281257;28;20240;-82
2023/03/26 16:41:16;;;;;;;3.50;3.20;;;10.10;58.60;;;;;;6278168;28;20506;-78
2023/03/26 16:44:29;;;;;;;3.37;3.07;;;10.10;58.70;;;;;;6275019;28;20248;-80
2023/03/26 16:47:38;;;;;;;3.10;2.90;;;10.00;59.00;;;;;;6267217;28;20733;-80
2023/03/26 16:50:51;;;;;;;3.20;3.00;;;10.00;59.10;;;;;;6260577;28;20249;-82